Waldo, Ohio
Current Conditions -  °F | °C
As of 2:53 PM on Thursday 29 Jan 2015 (Local Time) from KMNN Reporting Station
Haze Haze  
Wind Chill: 29°   Ceiling: 2000
Heat Index: 37°   Visibility: 3mi
Dew Point: 32°   Wind: 13mph
Humidity: 82%   Direction: 220°SW
Pressure: 29.75"   Gusts: NA
Location:  40.46°N, 83.08°W
Report Text: KMNN 291953Z AUTO 22011KT 3SM HZ OVC020 03/00 A2975 RMK AO2 SLP086 T00280000 TSNO
Loading
Personal Weather Stations






























Interactive Weather Map New forecast layout! Learn more

10-Day Weather Forecast

Advertisements
Track Severe Weather on mobile